createdAt,value
2019-06-08T00:02:02.533Z,100254.92
2019-06-08T00:04:29.587Z,100246.02
2019-06-08T00:06:56.699Z,100248.53
2019-06-08T00:09:24.150Z,100239.73
2019-06-08T00:11:51.453Z,100247.92
2019-06-08T00:14:19.207Z,100255.91
2019-06-08T00:16:46.276Z,100246.30
2019-06-08T00:19:13.806Z,100246.87
2019-06-08T00:21:41.216Z,100244.98
2019-06-08T00:24:09.518Z,100241.55
2019-06-08T00:26:36.718Z,100249.15
2019-06-08T00:29:03.941Z,100256.72
2019-06-08T00:31:31.103Z,100258.80
2019-06-08T00:33:58.470Z,100266.09
2019-06-08T00:36:25.894Z,100255.89
2019-06-08T00:38:52.937Z,100272.71
2019-06-08T00:41:20.705Z,100279.12
2019-06-08T00:43:49.374Z,100266.56
2019-06-08T00:46:17.227Z,100259.56
2019-06-08T00:48:44.382Z,100265.95
2019-06-08T00:51:11.489Z,100276.44
2019-06-08T00:53:38.522Z,100275.19
2019-06-08T00:56:06.679Z,100271.34
2019-06-08T00:58:33.733Z,100277.73
2019-06-08T01:01:00.774Z,100286.54
2019-06-08T01:03:27.818Z,100295.09
2019-06-08T01:05:57.004Z,100290.11
2019-06-08T01:08:27.378Z,100292.95
2019-06-08T01:10:54.614Z,100301.03
2019-06-08T01:13:24.843Z,100298.55
2019-06-08T01:15:52.132Z,100284.41
2019-06-08T01:18:21.144Z,100295.34
2019-06-08T01:20:48.217Z,100311.00
2019-06-08T01:23:16.338Z,100319.44
2019-06-08T01:25:43.372Z,100330.00
2019-06-08T01:28:10.480Z,100340.21
2019-06-08T01:30:37.737Z,100346.14
2019-06-08T01:33:04.770Z,100339.97
2019-06-08T01:35:31.868Z,100332.61
2019-06-08T01:37:58.915Z,100328.09
2019-06-08T01:40:27.359Z,100328.35
2019-06-08T01:42:56.463Z,100340.00
2019-06-08T01:45:30.139Z,100353.66
2019-06-08T01:48:15.980Z,100346.29
2019-06-08T01:50:32.851Z,100336.66
2019-06-08T01:53:01.321Z,100358.89
2019-06-08T01:55:31.022Z,100359.84
2019-06-08T01:57:58.795Z,100359.83
2019-06-08T02:00:32.510Z,100363.75
2019-06-08T02:02:57.142Z,100376.22
2019-06-08T02:05:26.097Z,100381.20
2019-06-08T02:07:53.221Z,100380.05
2019-06-08T02:10:22.146Z,100385.25
2019-06-08T02:12:49.253Z,100388.37
2019-06-08T02:15:16.915Z,100381.83
2019-06-08T02:17:45.070Z,100366.25
2019-06-08T02:20:14.337Z,100375.53
2019-06-08T02:22:41.361Z,100381.70
2019-06-08T02:25:09.713Z,100381.59
2019-06-08T02:27:40.971Z,100373.15
2019-06-08T02:30:15.086Z,100379.32
2019-06-08T02:32:43.165Z,100399.41
2019-06-08T02:35:20.765Z,100405.48
2019-06-08T02:37:49.140Z,100403.80
2019-06-08T02:40:16.528Z,100393.58
2019-06-08T02:42:43.738Z,100394.52
2019-06-08T02:45:13.928Z,100388.61
2019-06-08T02:47:41.298Z,100401.77
2019-06-08T02:50:09.389Z,100403.09
2019-06-08T02:52:38.285Z,100406.05
2019-06-08T02:55:08.510Z,100421.37
2019-06-08T02:57:39.843Z,100424.69
2019-06-08T03:00:09.569Z,100402.70
2019-06-08T03:02:40.462Z,100421.84
2019-06-08T03:05:10.892Z,100412.41
2019-06-08T03:07:41.356Z,100415.25
2019-06-08T03:10:08.969Z,100424.48
2019-06-08T03:12:39.764Z,100432.63
2019-06-08T03:15:08.471Z,100432.99
2019-06-08T03:17:35.685Z,100435.33
2019-06-08T03:20:04.859Z,100432.25
2019-06-08T03:22:34.029Z,100437.60
2019-06-08T03:25:01.218Z,100438.41
2019-06-08T03:27:28.470Z,100440.70
2019-06-08T03:29:55.949Z,100456.22
2019-06-08T03:32:22.982Z,100460.27
2019-06-08T03:34:55.710Z,100458.73
2019-06-08T03:37:19.158Z,100431.69
2019-06-08T03:39:46.235Z,100466.94
2019-06-08T03:42:13.620Z,100487.59
2019-06-08T03:44:42.787Z,100489.61
2019-06-08T03:47:09.811Z,100492.39
2019-06-08T03:49:48.813Z,100491.00
2019-06-08T03:52:06.071Z,100496.79
2019-06-08T03:54:33.669Z,100498.30
2019-06-08T03:57:01.918Z,100487.47
2019-06-08T03:59:28.965Z,100506.81
2019-06-08T04:01:56.056Z,100513.36
2019-06-08T04:04:23.092Z,100523.28
2019-06-08T04:06:50.222Z,100524.77
2019-06-08T04:09:17.223Z,100534.05
2019-06-08T04:11:46.768Z,100534.89
2019-06-08T04:14:14.199Z,100539.79
2019-06-08T04:16:42.835Z,100536.98
2019-06-08T04:19:10.184Z,100550.62
2019-06-08T04:21:37.928Z,100549.38
2019-06-08T04:24:05.094Z,100567.78
2019-06-08T04:26:33.312Z,100572.94
2019-06-08T04:29:02.205Z,100573.49
2019-06-08T04:31:29.277Z,100570.08
2019-06-08T04:33:56.282Z,100579.87
2019-06-08T04:36:23.388Z,100583.36
2019-06-08T04:38:50.458Z,100584.56
2019-06-08T04:41:17.863Z,100591.22
2019-06-08T04:43:47.006Z,100594.38
2019-06-08T04:46:13.933Z,100582.83
2019-06-08T04:48:42.829Z,100584.25
2019-06-08T04:51:10.124Z,100597.11
2019-06-08T04:53:38.637Z,100603.14
2019-06-08T04:56:05.678Z,100594.06
2019-06-08T04:58:32.761Z,100598.75
2019-06-08T05:00:59.811Z,100605.38
2019-06-08T05:03:27.255Z,100613.49
2019-06-08T05:05:54.354Z,100611.57
2019-06-08T05:08:21.383Z,100622.55
2019-06-08T05:10:49.636Z,100616.46
2019-06-08T05:13:17.132Z,100625.75
2019-06-08T05:15:45.453Z,100620.17
2019-06-08T05:18:13.706Z,100617.77
2019-06-08T05:20:43.091Z,100627.76
2019-06-08T05:23:09.843Z,100624.64
2019-06-08T05:25:36.910Z,100631.78
2019-06-08T05:28:03.988Z,100633.55
2019-06-08T05:30:31.039Z,100639.44
2019-06-08T05:32:59.310Z,100644.80
2019-06-08T05:35:27.729Z,100649.56
2019-06-08T05:37:54.820Z,100650.98
2019-06-08T05:40:21.846Z,100658.69
2019-06-08T05:42:49.973Z,100658.98
2019-06-08T05:45:17.416Z,100658.89
2019-06-08T05:47:45.714Z,100662.56
2019-06-08T05:50:14.451Z,100664.69
2019-06-08T05:52:41.904Z,100658.97
2019-06-08T05:55:09.576Z,100662.66
2019-06-08T05:57:36.681Z,100659.76
2019-06-08T06:00:09.110Z,100660.50
2019-06-08T06:02:34.111Z,100655.84
2019-06-08T06:05:01.180Z,100655.77
2019-06-08T06:07:28.195Z,100660.20
2019-06-08T06:09:57.494Z,100661.23
2019-06-08T06:12:24.635Z,100673.37
2019-06-08T06:14:51.681Z,100673.00
2019-06-08T06:17:18.905Z,100664.44
2019-06-08T06:19:47.223Z,100685.14
2019-06-08T06:22:15.490Z,100688.94
2019-06-08T06:24:43.710Z,100689.10
2019-06-08T06:27:12.261Z,100686.58
2019-06-08T06:29:39.289Z,100695.87
2019-06-08T06:32:11.141Z,100700.25
2019-06-08T06:34:39.781Z,100707.62
2019-06-08T06:37:08.422Z,100697.56
2019-06-08T06:39:35.486Z,100713.16
2019-06-08T06:42:04.674Z,100718.22
2019-06-08T06:44:34.464Z,100715.75
2019-06-08T06:47:06.564Z,100716.91
2019-06-08T06:49:33.684Z,100717.95
2019-06-08T06:52:00.866Z,100716.84
2019-06-08T06:54:28.926Z,100728.61
2019-06-08T06:56:55.979Z,100721.98
2019-06-08T06:59:23.086Z,100728.00
2019-06-08T07:01:57.632Z,100737.29
2019-06-08T07:04:31.275Z,100738.27
2019-06-08T07:06:59.634Z,100734.86
2019-06-08T07:09:26.687Z,100736.44
2019-06-08T07:11:56.670Z,100752.77
2019-06-08T07:14:24.445Z,100741.84
2019-06-08T07:17:06.089Z,100751.87
2019-06-08T07:19:36.019Z,100759.20
2019-06-08T07:22:04.838Z,100758.26
2019-06-08T07:24:31.908Z,100751.59
2019-06-08T07:26:58.978Z,100774.50
2019-06-08T07:29:26.851Z,100773.86
2019-06-08T07:31:55.496Z,100768.20
2019-06-08T07:34:22.546Z,100786.63
2019-06-08T07:36:49.743Z,100796.67
2019-06-08T07:39:16.943Z,100794.48
2019-06-08T07:41:51.792Z,100804.61
2019-06-08T07:44:19.878Z,100805.94
2019-06-08T07:46:47.095Z,100819.14
2019-06-08T07:49:18.187Z,100803.81
2019-06-08T07:52:02.473Z,100810.35
2019-06-08T07:54:22.314Z,100794.05
2019-06-08T07:56:54.949Z,100804.56
2019-06-08T07:59:22.080Z,100803.45
2019-06-08T08:01:49.856Z,100784.23
2019-06-08T08:04:17.159Z,100807.02
2019-06-08T08:06:46.384Z,100812.38
2019-06-08T08:09:13.431Z,100802.11
2019-06-08T08:11:40.505Z,100811.59
2019-06-08T08:14:07.572Z,100815.82
2019-06-08T08:16:34.728Z,100804.12
2019-06-08T08:19:01.881Z,100814.02
2019-06-08T08:24:24.524Z,100828.30
2019-06-08T08:26:54.432Z,100801.12
2019-06-08T08:29:28.197Z,100818.73
2019-06-08T08:32:00.138Z,100819.67
2019-06-08T08:34:33.429Z,100834.66
2019-06-08T08:37:06.388Z,100823.66
2019-06-08T08:39:38.329Z,100822.70
2019-06-08T08:42:08.539Z,100829.06
2019-06-08T08:44:37.963Z,100827.80
2019-06-08T08:47:08.039Z,100820.58
2019-06-08T08:49:44.157Z,100821.46
2019-06-08T08:52:12.297Z,100814.59
2019-06-08T08:54:42.802Z,100809.42
2019-06-08T08:57:12.960Z,100800.17
2019-06-08T08:59:40.128Z,100796.57
2019-06-08T09:02:11.547Z,100783.80
2019-06-08T09:04:40.856Z,100794.31
2019-06-08T09:07:10.647Z,100801.31
2019-06-08T09:09:39.194Z,100808.96
2019-06-08T09:12:08.255Z,100818.16
2019-06-08T09:14:38.754Z,100812.55
2019-06-08T09:17:09.013Z,100823.78
2019-06-08T09:19:39.276Z,100832.58
2019-06-08T09:22:09.422Z,100835.39
2019-06-08T09:24:38.804Z,100830.75
2019-06-08T09:27:08.021Z,100843.19
2019-06-08T09:29:35.561Z,100836.86
2019-06-08T09:32:03.629Z,100850.16
2019-06-08T09:34:32.294Z,100853.20
2019-06-08T09:37:02.502Z,100850.65
2019-06-08T09:39:29.589Z,100858.54
2019-06-08T09:42:00.410Z,100850.83
2019-06-08T09:44:27.931Z,100850.70
2019-06-08T09:46:58.740Z,100857.84
2019-06-08T09:49:28.336Z,100855.75
2019-06-08T09:51:58.737Z,100850.90
2019-06-08T09:54:24.445Z,100852.27
2019-06-08T09:56:51.534Z,100856.76
2019-06-08T09:59:19.178Z,100839.67
2019-06-08T10:01:46.417Z,100834.78
2019-06-08T10:04:15.994Z,100836.25
2019-06-08T10:06:43.062Z,100838.01
2019-06-08T10:09:10.608Z,100843.39
2019-06-08T10:11:42.163Z,100851.33
2019-06-08T10:14:15.062Z,100859.80
2019-06-08T10:16:42.665Z,100862.91
2019-06-08T10:19:11.501Z,100853.41
2019-06-08T10:21:42.843Z,100868.07
2019-06-08T10:24:30.508Z,100857.47
2019-06-08T10:27:11.062Z,100866.14
2019-06-08T10:29:35.302Z,100873.36
2019-06-08T10:32:03.841Z,100872.06
2019-06-08T10:34:31.340Z,100872.02
2019-06-08T10:37:03.346Z,100887.16
2019-06-08T10:39:30.807Z,100884.84
2019-06-08T10:42:01.483Z,100889.75
2019-06-08T10:44:32.351Z,100882.23
2019-06-08T10:47:03.257Z,100891.95
2019-06-08T10:49:29.728Z,100883.05
2019-06-08T10:52:02.161Z,100878.06
2019-06-08T10:54:29.446Z,100874.03
2019-06-08T10:56:59.670Z,100886.23
2019-06-08T10:59:25.508Z,100874.44
2019-06-08T11:01:52.553Z,100877.30
2019-06-08T11:04:19.592Z,100872.98
2019-06-08T11:06:48.118Z,100854.97
2019-06-08T11:09:16.358Z,100875.39
2019-06-08T11:11:44.136Z,100888.44
2019-06-08T11:14:13.212Z,100885.15
2019-06-08T11:16:40.183Z,100893.30
2019-06-08T11:19:13.014Z,100877.84
2019-06-08T11:21:38.587Z,100889.14
2019-06-08T11:24:19.444Z,100892.55
2019-06-08T11:26:35.043Z,100889.68
2019-06-08T11:29:02.951Z,100893.33
2019-06-08T11:31:32.227Z,100890.09
2019-06-08T11:34:08.992Z,100894.80
2019-06-08T11:36:52.419Z,100895.09
2019-06-08T11:39:23.387Z,100895.09
2019-06-08T11:42:09.838Z,100907.16
2019-06-08T11:44:38.937Z,100895.89
2019-06-08T11:47:13.264Z,100906.62
2019-06-08T11:49:45.090Z,100895.16
2019-06-08T11:52:15.434Z,100898.77
2019-06-08T11:54:43.315Z,100895.09
2019-06-08T11:57:18.245Z,100918.37
2019-06-08T11:59:48.535Z,100895.83
2019-06-08T12:02:18.464Z,100893.23
2019-06-08T12:04:58.251Z,100907.50
2019-06-08T12:07:32.160Z,100902.39
2019-06-08T12:10:09.060Z,100893.04
2019-06-08T12:12:41.208Z,100892.25
2019-06-08T12:15:11.594Z,100902.57
2019-06-08T12:20:37.972Z,100908.09
2019-06-08T12:23:07.937Z,100881.42
2019-06-08T12:25:37.780Z,100893.89
2019-06-08T12:28:04.761Z,100910.76
2019-06-08T12:30:31.832Z,100912.83
2019-06-08T12:33:00.995Z,100908.16
2019-06-08T12:35:28.831Z,100916.88
2019-06-08T12:37:58.094Z,100912.09
2019-06-08T12:40:25.199Z,100906.89
2019-06-08T12:42:59.468Z,100898.13
2019-06-08T12:45:27.593Z,100907.11
2019-06-08T12:47:55.084Z,100905.31
2019-06-08T12:50:22.196Z,100899.62
2019-06-08T12:52:49.466Z,100879.20
2019-06-08T12:55:24.739Z,100904.41
2019-06-08T12:57:53.784Z,100895.25
2019-06-08T13:00:21.516Z,100906.66
2019-06-08T13:02:51.314Z,100909.03
2019-06-08T13:05:23.076Z,100907.29
2019-06-08T13:07:58.953Z,100912.16
2019-06-08T13:10:27.763Z,100892.31
2019-06-08T13:13:02.934Z,100911.53
2019-06-08T13:15:32.670Z,100909.59
2019-06-08T13:18:15.191Z,100918.93
2019-06-08T13:20:43.448Z,100914.86
2019-06-08T13:23:11.552Z,100918.39
2019-06-08T13:25:43.526Z,100928.29
2019-06-08T13:28:10.907Z,100922.18
2019-06-08T13:30:38.968Z,100923.02
2019-06-08T13:33:08.081Z,100922.95
2019-06-08T13:35:35.208Z,100917.19
2019-06-08T13:38:03.199Z,100922.47
2019-06-08T13:40:30.252Z,100914.80
2019-06-08T13:42:58.236Z,100915.23
2019-06-08T13:45:27.827Z,100907.45
2019-06-08T13:47:54.776Z,100905.76
2019-06-08T13:50:23.849Z,100913.11
2019-06-08T13:52:51.190Z,100916.44
2019-06-08T13:55:48.014Z,100915.34
2019-06-08T13:58:05.532Z,100906.66
2019-06-08T14:00:34.840Z,100914.11
2019-06-08T14:03:03.068Z,100913.61
2019-06-08T14:05:30.942Z,100917.11
2019-06-08T14:08:10.980Z,100915.77
2019-06-08T14:11:08.313Z,100920.61
2019-06-08T14:13:48.472Z,100909.62
2019-06-08T14:16:20.261Z,100924.31
2019-06-08T14:18:48.615Z,100923.97
2019-06-08T14:21:21.442Z,100925.37
2019-06-08T14:23:45.011Z,100933.27
2019-06-08T14:26:12.108Z,100923.38
2019-06-08T14:28:39.230Z,100919.73
2019-06-08T14:31:08.329Z,100924.17
2019-06-08T14:33:37.999Z,100923.31
2019-06-08T14:36:07.779Z,100912.34
2019-06-08T14:38:41.637Z,100913.47
2019-06-08T14:41:07.630Z,100916.19
2019-06-08T14:43:44.059Z,100919.88
2019-06-08T14:46:18.479Z,100922.66
2019-06-08T14:48:55.325Z,100925.79
2019-06-08T14:51:47.808Z,100917.64
2019-06-08T14:54:18.527Z,100917.09
2019-06-08T14:56:44.485Z,100917.11
2019-06-08T14:59:11.583Z,100914.45
2019-06-08T15:01:38.892Z,100911.52
2019-06-08T15:04:08.825Z,100919.45
2019-06-08T15:06:35.308Z,100914.97
2019-06-08T15:09:04.337Z,100919.23
2019-06-08T15:11:34.876Z,100914.51
2019-06-08T15:14:02.004Z,100909.33
2019-06-08T15:16:32.496Z,100912.34
2019-06-08T15:19:00.330Z,100905.66
2019-06-08T15:21:32.620Z,100905.01
2019-06-08T15:23:57.888Z,100896.25
2019-06-08T15:26:33.629Z,100903.45
2019-06-08T15:28:54.989Z,100902.81
2019-06-08T15:31:25.136Z,100904.25
2019-06-08T15:33:53.616Z,100896.09
2019-06-08T15:36:22.078Z,100897.27
2019-06-08T15:38:49.575Z,100893.34
2019-06-08T15:41:18.128Z,100891.86
2019-06-08T15:43:47.965Z,100885.27
2019-06-08T15:46:18.490Z,100888.56
2019-06-08T15:48:48.361Z,100883.06
2019-06-08T15:51:14.961Z,100884.37
2019-06-08T15:53:42.113Z,100878.28
2019-06-08T15:56:09.347Z,100874.69
2019-06-08T15:58:40.518Z,100881.30
2019-06-08T16:01:07.316Z,100881.14
2019-06-08T16:03:34.429Z,100879.15
2019-06-08T16:06:01.555Z,100872.77
2019-06-08T16:08:30.256Z,100881.20
2019-06-08T16:10:59.535Z,100879.38
2019-06-08T16:13:26.803Z,100876.38
2019-06-08T16:15:53.843Z,100884.00
2019-06-08T16:18:22.976Z,100880.67
2019-06-08T16:20:50.042Z,100880.36
2019-06-08T16:23:17.118Z,100877.02
2019-06-08T16:25:44.271Z,100870.98
2019-06-08T16:28:11.465Z,100874.55
2019-06-08T16:30:39.635Z,100875.26
2019-06-08T16:33:06.715Z,100877.89
2019-06-08T16:35:33.805Z,100871.56
2019-06-08T16:38:01.028Z,100868.41
2019-06-08T16:40:29.846Z,100875.51
2019-06-08T16:42:57.397Z,100868.86
2019-06-08T16:45:24.518Z,100870.63
2019-06-08T16:47:51.695Z,100878.01
2019-06-08T16:50:25.099Z,100875.57
2019-06-08T16:52:52.677Z,100880.52
2019-06-08T16:55:19.712Z,100882.91
2019-06-08T16:57:47.095Z,100883.16
2019-06-08T17:00:33.247Z,100882.25
2019-06-08T17:02:46.690Z,100888.08
2019-06-08T17:05:14.189Z,100891.14
2019-06-08T17:07:41.291Z,100884.69
2019-06-08T17:10:08.702Z,100893.24
2019-06-08T17:12:36.855Z,100898.78
2019-06-08T17:15:04.702Z,100907.66
2019-06-08T17:17:43.028Z,100903.52
2019-06-08T17:20:14.942Z,100898.47
2019-06-08T17:22:44.045Z,100903.84
2019-06-08T17:25:11.517Z,100906.30
2019-06-08T17:27:38.948Z,100905.30
2019-06-08T17:30:10.330Z,100908.70
2019-06-08T17:32:38.444Z,100897.93
2019-06-08T17:35:06.818Z,100904.80
2019-06-08T17:37:36.005Z,100907.00
2019-06-08T17:40:03.827Z,100905.88
2019-06-08T17:42:32.037Z,100906.13
2019-06-08T17:45:02.555Z,100899.64
2019-06-08T17:47:30.067Z,100906.21
2019-06-08T17:49:58.283Z,100909.80
2019-06-08T17:52:27.880Z,100899.53
2019-06-08T17:54:58.338Z,100911.95
2019-06-08T17:57:42.442Z,100905.45
2019-06-08T18:00:09.107Z,100911.69
2019-06-08T18:02:39.883Z,100906.21
2019-06-08T18:05:17.921Z,100899.58
2019-06-08T18:08:00.028Z,100898.27
2019-06-08T18:10:36.519Z,100896.94
2019-06-08T18:13:12.965Z,100898.59
2019-06-08T18:15:41.765Z,100896.73
2019-06-08T18:18:09.530Z,100896.63
2019-06-08T18:20:39.477Z,100897.29
2019-06-08T18:23:07.747Z,100901.77
2019-06-08T18:25:37.530Z,100900.83
2019-06-08T18:28:10.220Z,100902.81
2019-06-08T18:30:32.684Z,100900.38
2019-06-08T18:32:59.835Z,100906.72
2019-06-08T18:35:27.769Z,100906.98
2019-06-08T18:37:59.770Z,100920.06
2019-06-08T18:40:29.843Z,100914.92
2019-06-08T18:42:57.684Z,100914.20
2019-06-08T18:45:27.455Z,100921.53
2019-06-08T18:48:01.302Z,100919.17
2019-06-08T18:50:39.135Z,100920.35
2019-06-08T18:53:07.231Z,100925.23
2019-06-08T18:55:36.294Z,100931.02
2019-06-08T18:58:16.406Z,100932.73
2019-06-08T19:00:43.006Z,100934.06
2019-06-08T19:03:09.380Z,100933.50
2019-06-08T19:05:40.309Z,100935.42
2019-06-08T19:08:08.888Z,100935.02
2019-06-08T19:10:37.853Z,100943.00
2019-06-08T19:13:05.611Z,100941.97
2019-06-08T19:15:39.884Z,100947.30
2019-06-08T19:18:08.285Z,100943.59
2019-06-08T19:20:43.167Z,100944.18
2019-06-08T19:23:09.539Z,100950.61
2019-06-08T19:25:42.206Z,100954.51
2019-06-08T19:28:10.710Z,100948.44
2019-06-08T19:30:43.554Z,100949.56
2019-06-08T19:33:09.915Z,100947.11
2019-06-08T19:35:37.652Z,100949.17
2019-06-08T19:38:07.417Z,100950.94
2019-06-08T19:40:38.818Z,100954.89
2019-06-08T19:43:07.519Z,100953.08
2019-06-08T19:45:39.101Z,100959.88
2019-06-08T19:48:12.184Z,100960.48
2019-06-08T19:50:53.798Z,100967.16
2019-06-08T19:53:28.701Z,100968.10
2019-06-08T19:56:04.691Z,100969.55
2019-06-08T19:58:54.918Z,100979.44
2019-06-08T20:01:18.336Z,100981.35
2019-06-08T20:03:46.969Z,100987.27
2019-06-08T20:06:14.548Z,100981.77
2019-06-08T20:08:41.555Z,100988.52
2019-06-08T20:11:09.045Z,100988.28
2019-06-08T20:13:37.537Z,100995.16
2019-06-08T20:16:05.170Z,100993.50
2019-06-08T20:18:32.466Z,100996.93
2019-06-08T20:20:59.709Z,100996.28
2019-06-08T20:23:27.606Z,100999.94
2019-06-08T20:25:57.455Z,101001.29
2019-06-08T20:28:24.403Z,100996.93
2019-06-08T20:30:52.715Z,101011.23
2019-06-08T20:33:20.488Z,101013.97
2019-06-08T20:35:48.536Z,101013.70
2019-06-08T20:38:17.740Z,101012.03
2019-06-08T20:40:46.274Z,101015.11
2019-06-08T20:43:14.464Z,101021.77
2019-06-08T20:45:42.052Z,101018.47
2019-06-08T20:48:10.365Z,101025.80
2019-06-08T20:50:49.682Z,101022.40
2019-06-08T20:53:17.775Z,101027.10
2019-06-08T20:55:48.221Z,101025.73
2019-06-08T20:58:17.695Z,101023.98
2019-06-08T21:00:46.116Z,101025.13
2019-06-08T21:03:14.011Z,101028.91
2019-06-08T21:05:41.343Z,101020.58
2019-06-08T21:08:08.577Z,101025.48
2019-06-08T21:10:37.757Z,101026.35
2019-06-08T21:13:07.133Z,101027.56
2019-06-08T21:15:34.233Z,101034.12
2019-06-08T21:18:01.351Z,101036.56
2019-06-08T21:20:28.454Z,101042.61
2019-06-08T21:22:59.513Z,101037.42
2019-06-08T21:25:28.123Z,101042.98
2019-06-08T21:27:58.382Z,101036.92
2019-06-08T21:30:28.496Z,101041.89
2019-06-08T21:32:59.218Z,101037.75
2019-06-08T21:35:25.374Z,101040.09
2019-06-08T21:37:53.576Z,101040.34
2019-06-08T21:40:21.804Z,101045.15
2019-06-08T21:42:52.266Z,101043.35
2019-06-08T21:45:19.897Z,101049.88
2019-06-08T21:47:51.297Z,101046.89
2019-06-08T21:50:18.759Z,101047.22
2019-06-08T21:52:48.655Z,101051.16
2019-06-08T21:55:17.648Z,101055.16
2019-06-08T21:57:48.271Z,101050.80
2019-06-08T22:00:37.778Z,101058.13
2019-06-08T22:02:51.637Z,101064.15
2019-06-08T22:05:20.008Z,101056.70
2019-06-08T22:07:50.470Z,101060.69
2019-06-08T22:10:19.077Z,101056.44
2019-06-08T22:12:48.400Z,101059.05
2019-06-08T22:15:15.207Z,101057.36
2019-06-08T22:17:44.287Z,101055.38
2019-06-08T22:20:12.546Z,101062.47
2019-06-08T22:22:39.657Z,101060.54
2019-06-08T22:25:08.153Z,101063.95
2019-06-08T22:27:37.955Z,101061.69
2019-06-08T22:30:13.470Z,101064.22
2019-06-08T22:32:34.704Z,101066.72
2019-06-08T22:35:03.494Z,101068.21
2019-06-08T22:37:31.152Z,101067.56
2019-06-08T22:40:01.061Z,101071.20
2019-06-08T22:42:29.189Z,101067.75
2019-06-08T22:44:59.293Z,101069.05
2019-06-08T22:47:27.641Z,101072.20
2019-06-08T22:50:00.323Z,101074.93
2019-06-08T22:52:27.710Z,101077.70
2019-06-08T22:55:03.439Z,101071.75
2019-06-08T22:57:27.814Z,101077.34
2019-06-08T22:59:58.798Z,101077.64
2019-06-08T23:02:27.825Z,101074.46
2019-06-08T23:04:56.233Z,101078.27
2019-06-08T23:07:28.636Z,101085.33
2019-06-08T23:09:52.336Z,101085.55
2019-06-08T23:12:20.724Z,101077.96
2019-06-08T23:14:47.893Z,101077.99
2019-06-08T23:17:14.979Z,101078.78
2019-06-08T23:19:42.370Z,101081.48
2019-06-08T23:22:09.492Z,101080.68
2019-06-08T23:24:38.346Z,101083.41
2019-06-08T23:27:06.703Z,101079.09
2019-06-08T23:29:33.979Z,101082.92
2019-06-08T23:32:03.136Z,101086.28
2019-06-08T23:34:30.047Z,101087.34
2019-06-08T23:37:00.917Z,101086.66
2019-06-08T23:39:28.285Z,101088.53
2019-06-08T23:41:55.177Z,101088.13
2019-06-08T23:44:22.324Z,101091.25
2019-06-08T23:46:49.437Z,101088.09
2019-06-08T23:49:18.645Z,101078.24
2019-06-08T23:51:47.493Z,101078.96
2019-06-08T23:54:14.508Z,101075.70
2019-06-08T23:56:41.681Z,101075.84
2019-06-08T23:59:09.445Z,101073.91
